sensor_id;sensor_type;location;lat;lon;timestamp;P1;durP1;ratioP1;P2;durP2;ratioP2
24685;SDS011;12804;51.176;4.452;2024-02-04T00:00:01;24.05;;;13.32;;
24685;SDS011;12804;51.176;4.452;2024-02-04T00:02:36;28.17;;;13.80;;
24685;SDS011;12804;51.176;4.452;2024-02-04T00:05:03;29.30;;;13.15;;
24685;SDS011;12804;51.176;4.452;2024-02-04T00:07:29;26.05;;;13.07;;
24685;SDS011;12804;51.176;4.452;2024-02-04T00:09:55;24.15;;;13.43;;
24685;SDS011;12804;51.176;4.452;2024-02-04T00:12:21;26.55;;;13.15;;
24685;SDS011;12804;51.176;4.452;2024-02-04T00:14:47;26.67;;;13.63;;
24685;SDS011;12804;51.176;4.452;2024-02-04T00:17:15;24.00;;;12.10;;
24685;SDS011;12804;51.176;4.452;2024-02-04T00:19:41;24.38;;;12.93;;
24685;SDS011;12804;51.176;4.452;2024-02-04T00:22:07;23.13;;;12.27;;
24685;SDS011;12804;51.176;4.452;2024-02-04T00:24:33;26.88;;;12.52;;
24685;SDS011;12804;51.176;4.452;2024-02-04T00:26:59;21.92;;;11.73;;
24685;SDS011;12804;51.176;4.452;2024-02-04T00:29:25;19.35;;;11.63;;
24685;SDS011;12804;51.176;4.452;2024-02-04T00:31:51;23.63;;;11.98;;
24685;SDS011;12804;51.176;4.452;2024-02-04T00:34:16;24.83;;;12.85;;
24685;SDS011;12804;51.176;4.452;2024-02-04T00:36:42;21.92;;;12.15;;
24685;SDS011;12804;51.176;4.452;2024-02-04T00:39:08;27.33;;;13.05;;
24685;SDS011;12804;51.176;4.452;2024-02-04T00:41:34;22.08;;;12.65;;
24685;SDS011;12804;51.176;4.452;2024-02-04T00:44:00;24.85;;;13.45;;
24685;SDS011;12804;51.176;4.452;2024-02-04T00:46:26;25.50;;;13.00;;
24685;SDS011;12804;51.176;4.452;2024-02-04T00:48:52;29.08;;;13.40;;
24685;SDS011;12804;51.176;4.452;2024-02-04T00:51:18;26.63;;;13.80;;
24685;SDS011;12804;51.176;4.452;2024-02-04T00:53:45;23.17;;;13.52;;
24685;SDS011;12804;51.176;4.452;2024-02-04T00:56:11;25.50;;;14.07;;
24685;SDS011;12804;51.176;4.452;2024-02-04T00:58:38;24.55;;;12.85;;
24685;SDS011;12804;51.176;4.452;2024-02-04T01:01:04;26.83;;;13.80;;
24685;SDS011;12804;51.176;4.452;2024-02-04T01:03:30;26.73;;;14.38;;
24685;SDS011;12804;51.176;4.452;2024-02-04T01:05:56;25.90;;;14.63;;
24685;SDS011;12804;51.176;4.452;2024-02-04T01:08:22;24.98;;;13.85;;
24685;SDS011;12804;51.176;4.452;2024-02-04T01:10:48;30.23;;;15.00;;
24685;SDS011;12804;51.176;4.452;2024-02-04T01:13:16;23.80;;;14.32;;
24685;SDS011;12804;51.176;4.452;2024-02-04T01:15:42;27.35;;;14.05;;
24685;SDS011;12804;51.176;4.452;2024-02-04T01:18:08;29.35;;;14.10;;
24685;SDS011;12804;51.176;4.452;2024-02-04T01:20:34;26.48;;;14.82;;
24685;SDS011;12804;51.176;4.452;2024-02-04T01:23:02;25.50;;;14.20;;
24685;SDS011;12804;51.176;4.452;2024-02-04T01:25:27;20.40;;;12.38;;
24685;SDS011;12804;51.176;4.452;2024-02-04T01:27:53;23.80;;;13.00;;
24685;SDS011;12804;51.176;4.452;2024-02-04T01:30:20;19.23;;;12.18;;
24685;SDS011;12804;51.176;4.452;2024-02-04T01:32:46;23.20;;;12.65;;
24685;SDS011;12804;51.176;4.452;2024-02-04T01:35:12;20.40;;;12.85;;
24685;SDS011;12804;51.176;4.452;2024-02-04T01:37:40;21.02;;;12.32;;
24685;SDS011;12804;51.176;4.452;2024-02-04T01:40:06;22.92;;;13.02;;
24685;SDS011;12804;51.176;4.452;2024-02-04T01:42:33;26.20;;;14.23;;
24685;SDS011;12804;51.176;4.452;2024-02-04T01:44:58;28.45;;;13.75;;
24685;SDS011;12804;51.176;4.452;2024-02-04T01:47:24;25.98;;;13.68;;
24685;SDS011;12804;51.176;4.452;2024-02-04T01:49:50;25.45;;;13.57;;
24685;SDS011;12804;51.176;4.452;2024-02-04T01:52:16;25.80;;;13.82;;
24685;SDS011;12804;51.176;4.452;2024-02-04T01:54:42;26.80;;;14.27;;
24685;SDS011;12804;51.176;4.452;2024-02-04T01:57:09;30.02;;;13.73;;
24685;SDS011;12804;51.176;4.452;2024-02-04T01:59:37;35.45;;;14.38;;
24685;SDS011;12804;51.176;4.452;2024-02-04T02:02:05;30.60;;;14.77;;
24685;SDS011;12804;51.176;4.452;2024-02-04T02:04:31;32.15;;;14.70;;
24685;SDS011;12804;51.176;4.452;2024-02-04T02:06:57;29.13;;;14.07;;
24685;SDS011;12804;51.176;4.452;2024-02-04T02:09:28;33.67;;;15.80;;
24685;SDS011;12804;51.176;4.452;2024-02-04T02:11:59;37.28;;;16.80;;
24685;SDS011;12804;51.176;4.452;2024-02-04T02:14:33;29.77;;;14.75;;
24685;SDS011;12804;51.176;4.452;2024-02-04T02:17:04;28.02;;;14.52;;
24685;SDS011;12804;51.176;4.452;2024-02-04T02:22:07;38.67;;;15.93;;
24685;SDS011;12804;51.176;4.452;2024-02-04T02:24:47;30.52;;;14.30;;
24685;SDS011;12804;51.176;4.452;2024-02-04T02:27:14;35.15;;;14.95;;
24685;SDS011;12804;51.176;4.452;2024-02-04T02:29:40;32.83;;;14.68;;
24685;SDS011;12804;51.176;4.452;2024-02-04T02:32:06;29.05;;;14.55;;
24685;SDS011;12804;51.176;4.452;2024-02-04T02:34:32;36.97;;;16.27;;
24685;SDS011;12804;51.176;4.452;2024-02-04T02:39:56;31.73;;;14.77;;
24685;SDS011;12804;51.176;4.452;2024-02-04T02:42:27;30.23;;;14.93;;
24685;SDS011;12804;51.176;4.452;2024-02-04T02:44:54;34.45;;;15.23;;
24685;SDS011;12804;51.176;4.452;2024-02-04T02:47:22;32.88;;;14.43;;
24685;SDS011;12804;51.176;4.452;2024-02-04T02:49:50;31.67;;;14.60;;
24685;SDS011;12804;51.176;4.452;2024-02-04T02:52:18;35.28;;;16.08;;
24685;SDS011;12804;51.176;4.452;2024-02-04T02:54:44;33.70;;;15.30;;
24685;SDS011;12804;51.176;4.452;2024-02-04T02:57:09;29.38;;;15.07;;
24685;SDS011;12804;51.176;4.452;2024-02-04T02:59:35;30.27;;;14.65;;
24685;SDS011;12804;51.176;4.452;2024-02-04T03:02:01;34.97;;;14.40;;
24685;SDS011;12804;51.176;4.452;2024-02-04T03:04:27;32.30;;;15.07;;
24685;SDS011;12804;51.176;4.452;2024-02-04T03:06:53;35.60;;;15.07;;
24685;SDS011;12804;51.176;4.452;2024-02-04T03:09:19;38.10;;;15.13;;
24685;SDS011;12804;51.176;4.452;2024-02-04T03:11:45;37.63;;;15.77;;
24685;SDS011;12804;51.176;4.452;2024-02-04T03:14:11;41.45;;;16.40;;
24685;SDS011;12804;51.176;4.452;2024-02-04T03:16:39;39.47;;;16.13;;
24685;SDS011;12804;51.176;4.452;2024-02-04T03:19:05;33.60;;;15.25;;
24685;SDS011;12804;51.176;4.452;2024-02-04T03:21:31;30.30;;;14.98;;
24685;SDS011;12804;51.176;4.452;2024-02-04T03:23:57;36.75;;;15.95;;
24685;SDS011;12804;51.176;4.452;2024-02-04T03:26:23;31.42;;;16.05;;
24685;SDS011;12804;51.176;4.452;2024-02-04T03:28:49;35.72;;;15.13;;
24685;SDS011;12804;51.176;4.452;2024-02-04T03:31:22;33.58;;;14.27;;
24685;SDS011;12804;51.176;4.452;2024-02-04T03:33:48;32.30;;;14.63;;
24685;SDS011;12804;51.176;4.452;2024-02-04T03:36:19;27.30;;;13.90;;
24685;SDS011;12804;51.176;4.452;2024-02-04T03:38:48;27.98;;;13.88;;
24685;SDS011;12804;51.176;4.452;2024-02-04T03:41:17;24.73;;;12.93;;
24685;SDS011;12804;51.176;4.452;2024-02-04T03:43:43;27.10;;;13.75;;
24685;SDS011;12804;51.176;4.452;2024-02-04T03:46:13;26.48;;;12.65;;
24685;SDS011;12804;51.176;4.452;2024-02-04T03:48:40;25.42;;;12.60;;
24685;SDS011;12804;51.176;4.452;2024-02-04T03:51:06;27.65;;;11.82;;
24685;SDS011;12804;51.176;4.452;2024-02-04T03:53:32;22.67;;;11.98;;
24685;SDS011;12804;51.176;4.452;2024-02-04T03:55:58;24.33;;;11.52;;
24685;SDS011;12804;51.176;4.452;2024-02-04T03:58:24;23.70;;;11.10;;
24685;SDS011;12804;51.176;4.452;2024-02-04T04:00:55;22.30;;;11.27;;
24685;SDS011;12804;51.176;4.452;2024-02-04T04:03:21;22.10;;;11.60;;
24685;SDS011;12804;51.176;4.452;2024-02-04T04:05:48;21.58;;;10.88;;
24685;SDS011;12804;51.176;4.452;2024-02-04T04:08:14;25.17;;;10.43;;
24685;SDS011;12804;51.176;4.452;2024-02-04T04:10:39;19.63;;;11.38;;
24685;SDS011;12804;51.176;4.452;2024-02-04T04:13:05;23.10;;;11.68;;
24685;SDS011;12804;51.176;4.452;2024-02-04T04:15:31;21.63;;;12.32;;
24685;SDS011;12804;51.176;4.452;2024-02-04T04:17:57;24.58;;;12.65;;
24685;SDS011;12804;51.176;4.452;2024-02-04T04:20:23;26.58;;;12.05;;
24685;SDS011;12804;51.176;4.452;2024-02-04T04:22:48;23.85;;;12.48;;
24685;SDS011;12804;51.176;4.452;2024-02-04T04:25:14;26.13;;;11.68;;
24685;SDS011;12804;51.176;4.452;2024-02-04T04:27:42;19.30;;;11.50;;
24685;SDS011;12804;51.176;4.452;2024-02-04T04:30:07;21.90;;;11.77;;
24685;SDS011;12804;51.176;4.452;2024-02-04T04:32:34;19.65;;;10.88;;
24685;SDS011;12804;51.176;4.452;2024-02-04T04:35:00;24.13;;;11.32;;
24685;SDS011;12804;51.176;4.452;2024-02-04T04:37:25;24.98;;;11.95;;
24685;SDS011;12804;51.176;4.452;2024-02-04T04:39:54;22.05;;;10.98;;
24685;SDS011;12804;51.176;4.452;2024-02-04T04:42:20;20.63;;;11.27;;
24685;SDS011;12804;51.176;4.452;2024-02-04T04:44:46;22.90;;;11.77;;
24685;SDS011;12804;51.176;4.452;2024-02-04T04:47:12;18.40;;;11.45;;
24685;SDS011;12804;51.176;4.452;2024-02-04T04:49:39;18.65;;;10.63;;
24685;SDS011;12804;51.176;4.452;2024-02-04T04:52:05;25.55;;;11.50;;
24685;SDS011;12804;51.176;4.452;2024-02-04T04:54:31;25.20;;;12.90;;
24685;SDS011;12804;51.176;4.452;2024-02-04T04:56:57;22.65;;;11.82;;
24685;SDS011;12804;51.176;4.452;2024-02-04T04:59:22;23.20;;;12.13;;
24685;SDS011;12804;51.176;4.452;2024-02-04T05:01:48;21.58;;;12.05;;
24685;SDS011;12804;51.176;4.452;2024-02-04T05:04:15;23.70;;;13.13;;
24685;SDS011;12804;51.176;4.452;2024-02-04T05:06:41;26.45;;;12.50;;
24685;SDS011;12804;51.176;4.452;2024-02-04T05:09:07;24.90;;;11.50;;
24685;SDS011;12804;51.176;4.452;2024-02-04T05:11:33;18.77;;;12.00;;
24685;SDS011;12804;51.176;4.452;2024-02-04T05:13:59;25.27;;;11.77;;
24685;SDS011;12804;51.176;4.452;2024-02-04T05:16:25;27.08;;;11.40;;
24685;SDS011;12804;51.176;4.452;2024-02-04T05:18:51;24.83;;;11.00;;
24685;SDS011;12804;51.176;4.452;2024-02-04T05:21:17;24.77;;;9.95;;
24685;SDS011;12804;51.176;4.452;2024-02-04T05:23:42;20.20;;;10.23;;
24685;SDS011;12804;51.176;4.452;2024-02-04T05:26:08;16.83;;;9.35;;
24685;SDS011;12804;51.176;4.452;2024-02-04T05:28:34;19.17;;;9.48;;
24685;SDS011;12804;51.176;4.452;2024-02-04T05:31:03;17.30;;;9.50;;
24685;SDS011;12804;51.176;4.452;2024-02-04T05:33:28;20.10;;;9.90;;
24685;SDS011;12804;51.176;4.452;2024-02-04T05:35:54;20.23;;;10.43;;
24685;SDS011;12804;51.176;4.452;2024-02-04T05:38:21;23.05;;;11.13;;
24685;SDS011;12804;51.176;4.452;2024-02-04T05:40:48;25.35;;;10.10;;
24685;SDS011;12804;51.176;4.452;2024-02-04T05:43:14;22.80;;;10.43;;
24685;SDS011;12804;51.176;4.452;2024-02-04T05:45:41;21.17;;;10.80;;
24685;SDS011;12804;51.176;4.452;2024-02-04T05:48:07;17.00;;;10.10;;
24685;SDS011;12804;51.176;4.452;2024-02-04T05:50:33;20.02;;;9.43;;
24685;SDS011;12804;51.176;4.452;2024-02-04T05:52:59;18.02;;;9.80;;
24685;SDS011;12804;51.176;4.452;2024-02-04T05:55:25;16.88;;;9.43;;
24685;SDS011;12804;51.176;4.452;2024-02-04T05:57:51;69.22;;;37.58;;
24685;SDS011;12804;51.176;4.452;2024-02-04T06:00:16;16.80;;;9.48;;
24685;SDS011;12804;51.176;4.452;2024-02-04T06:02:43;18.80;;;9.18;;
24685;SDS011;12804;51.176;4.452;2024-02-04T06:05:09;19.77;;;9.25;;
24685;SDS011;12804;51.176;4.452;2024-02-04T06:07:36;17.40;;;8.85;;
24685;SDS011;12804;51.176;4.452;2024-02-04T06:10:01;21.83;;;8.57;;
24685;SDS011;12804;51.176;4.452;2024-02-04T06:12:29;20.92;;;8.23;;
24685;SDS011;12804;51.176;4.452;2024-02-04T06:14:55;15.20;;;7.55;;
24685;SDS011;12804;51.176;4.452;2024-02-04T06:17:20;18.45;;;8.27;;
24685;SDS011;12804;51.176;4.452;2024-02-04T06:19:46;19.35;;;7.47;;
24685;SDS011;12804;51.176;4.452;2024-02-04T06:22:12;17.98;;;7.38;;
24685;SDS011;12804;51.176;4.452;2024-02-04T06:24:39;18.98;;;7.60;;
24685;SDS011;12804;51.176;4.452;2024-02-04T06:27:06;19.55;;;7.90;;
24685;SDS011;12804;51.176;4.452;2024-02-04T06:29:33;16.83;;;7.45;;
24685;SDS011;12804;51.176;4.452;2024-02-04T06:31:59;19.42;;;7.68;;
24685;SDS011;12804;51.176;4.452;2024-02-04T06:34:25;20.50;;;7.32;;
24685;SDS011;12804;51.176;4.452;2024-02-04T06:36:50;16.52;;;7.15;;
24685;SDS011;12804;51.176;4.452;2024-02-04T06:39:16;16.00;;;6.53;;
24685;SDS011;12804;51.176;4.452;2024-02-04T06:41:42;16.08;;;6.18;;
24685;SDS011;12804;51.176;4.452;2024-02-04T06:44:08;15.80;;;5.60;;
24685;SDS011;12804;51.176;4.452;2024-02-04T06:46:35;12.40;;;5.75;;
24685;SDS011;12804;51.176;4.452;2024-02-04T06:49:01;11.13;;;5.32;;
24685;SDS011;12804;51.176;4.452;2024-02-04T06:51:27;19.27;;;6.43;;
24685;SDS011;12804;51.176;4.452;2024-02-04T06:53:53;17.08;;;6.40;;
24685;SDS011;12804;51.176;4.452;2024-02-04T06:56:19;13.98;;;5.57;;
24685;SDS011;12804;51.176;4.452;2024-02-04T06:58:44;18.08;;;7.18;;
24685;SDS011;12804;51.176;4.452;2024-02-04T07:01:11;16.17;;;7.13;;
24685;SDS011;12804;51.176;4.452;2024-02-04T07:03:37;12.93;;;6.40;;
24685;SDS011;12804;51.176;4.452;2024-02-04T07:06:03;14.85;;;6.88;;
24685;SDS011;12804;51.176;4.452;2024-02-04T07:08:29;11.30;;;6.88;;
24685;SDS011;12804;51.176;4.452;2024-02-04T07:10:55;15.80;;;7.10;;
24685;SDS011;12804;51.176;4.452;2024-02-04T07:13:21;17.83;;;7.57;;
24685;SDS011;12804;51.176;4.452;2024-02-04T07:15:47;13.63;;;7.43;;
24685;SDS011;12804;51.176;4.452;2024-02-04T07:18:13;16.98;;;7.63;;
24685;SDS011;12804;51.176;4.452;2024-02-04T07:20:38;12.95;;;7.47;;
24685;SDS011;12804;51.176;4.452;2024-02-04T07:23:05;15.38;;;7.57;;
24685;SDS011;12804;51.176;4.452;2024-02-04T07:25:34;14.50;;;7.90;;
24685;SDS011;12804;51.176;4.452;2024-02-04T07:28:00;18.77;;;7.97;;
24685;SDS011;12804;51.176;4.452;2024-02-04T07:30:28;13.93;;;7.05;;
24685;SDS011;12804;51.176;4.452;2024-02-04T07:32:53;14.15;;;7.47;;
24685;SDS011;12804;51.176;4.452;2024-02-04T07:35:19;14.55;;;7.93;;
24685;SDS011;12804;51.176;4.452;2024-02-04T07:37:45;12.30;;;6.80;;
24685;SDS011;12804;51.176;4.452;2024-02-04T07:40:11;14.10;;;7.30;;
24685;SDS011;12804;51.176;4.452;2024-02-04T07:42:37;15.23;;;7.88;;
24685;SDS011;12804;51.176;4.452;2024-02-04T07:45:03;14.70;;;7.40;;
24685;SDS011;12804;51.176;4.452;2024-02-04T07:47:34;14.25;;;7.68;;
24685;SDS011;12804;51.176;4.452;2024-02-04T07:50:00;15.63;;;7.95;;
24685;SDS011;12804;51.176;4.452;2024-02-04T07:52:26;15.55;;;7.53;;
24685;SDS011;12804;51.176;4.452;2024-02-04T07:54:51;14.98;;;7.20;;
24685;SDS011;12804;51.176;4.452;2024-02-04T07:57:17;16.73;;;7.90;;
24685;SDS011;12804;51.176;4.452;2024-02-04T07:59:43;14.88;;;7.28;;
24685;SDS011;12804;51.176;4.452;2024-02-04T08:02:09;14.52;;;6.82;;
24685;SDS011;12804;51.176;4.452;2024-02-04T08:04:35;16.13;;;6.65;;
24685;SDS011;12804;51.176;4.452;2024-02-04T08:07:01;11.70;;;6.65;;
24685;SDS011;12804;51.176;4.452;2024-02-04T08:09:27;14.30;;;7.03;;
24685;SDS011;12804;51.176;4.452;2024-02-04T08:11:53;11.95;;;6.68;;
24685;SDS011;12804;51.176;4.452;2024-02-04T08:14:19;9.48;;;5.97;;
24685;SDS011;12804;51.176;4.452;2024-02-04T08:16:45;11.30;;;5.65;;
24685;SDS011;12804;51.176;4.452;2024-02-04T08:19:12;9.27;;;5.50;;
24685;SDS011;12804;51.176;4.452;2024-02-04T08:21:38;10.43;;;5.70;;
24685;SDS011;12804;51.176;4.452;2024-02-04T08:24:04;8.73;;;4.88;;
24685;SDS011;12804;51.176;4.452;2024-02-04T08:26:31;11.75;;;5.55;;
24685;SDS011;12804;51.176;4.452;2024-02-04T08:28:56;9.13;;;5.07;;
24685;SDS011;12804;51.176;4.452;2024-02-04T08:31:22;12.10;;;5.30;;
24685;SDS011;12804;51.176;4.452;2024-02-04T08:33:48;8.30;;;4.95;;
24685;SDS011;12804;51.176;4.452;2024-02-04T08:36:14;6.63;;;4.57;;
24685;SDS011;12804;51.176;4.452;2024-02-04T08:38:40;12.57;;;5.55;;
24685;SDS011;12804;51.176;4.452;2024-02-04T08:41:09;12.00;;;4.53;;
24685;SDS011;12804;51.176;4.452;2024-02-04T08:43:35;9.23;;;4.88;;
24685;SDS011;12804;51.176;4.452;2024-02-04T08:46:01;11.57;;;4.60;;
24685;SDS011;12804;51.176;4.452;2024-02-04T08:48:26;5.45;;;4.28;;
24685;SDS011;12804;51.176;4.452;2024-02-04T08:50:52;8.00;;;4.60;;
24685;SDS011;12804;51.176;4.452;2024-02-04T08:53:20;9.75;;;4.72;;
24685;SDS011;12804;51.176;4.452;2024-02-04T08:55:46;8.50;;;4.75;;
24685;SDS011;12804;51.176;4.452;2024-02-04T08:58:12;8.05;;;4.22;;
24685;SDS011;12804;51.176;4.452;2024-02-04T09:00:38;10.25;;;4.53;;
24685;SDS011;12804;51.176;4.452;2024-02-04T09:03:04;7.78;;;4.95;;
24685;SDS011;12804;51.176;4.452;2024-02-04T09:05:29;10.15;;;5.15;;
24685;SDS011;12804;51.176;4.452;2024-02-04T09:07:56;7.53;;;4.82;;
24685;SDS011;12804;51.176;4.452;2024-02-04T09:10:22;7.93;;;4.47;;
24685;SDS011;12804;51.176;4.452;2024-02-04T09:12:47;6.72;;;3.72;;
24685;SDS011;12804;51.176;4.452;2024-02-04T09:15:13;6.10;;;3.53;;
24685;SDS011;12804;51.176;4.452;2024-02-04T09:17:39;6.45;;;3.33;;
24685;SDS011;12804;51.176;4.452;2024-02-04T09:20:05;10.68;;;3.70;;
24685;SDS011;12804;51.176;4.452;2024-02-04T09:22:32;5.07;;;3.47;;
24685;SDS011;12804;51.176;4.452;2024-02-04T09:24:58;5.32;;;3.20;;
24685;SDS011;12804;51.176;4.452;2024-02-04T09:27:25;6.10;;;3.25;;
24685;SDS011;12804;51.176;4.452;2024-02-04T09:29:51;5.35;;;3.08;;
24685;SDS011;12804;51.176;4.452;2024-02-04T09:32:17;6.20;;;3.30;;
24685;SDS011;12804;51.176;4.452;2024-02-04T09:34:43;9.95;;;4.40;;
24685;SDS011;12804;51.176;4.452;2024-02-04T09:37:08;5.50;;;3.13;;
24685;SDS011;12804;51.176;4.452;2024-02-04T09:39:34;6.20;;;3.20;;
24685;SDS011;12804;51.176;4.452;2024-02-04T09:42:01;5.88;;;2.72;;
24685;SDS011;12804;51.176;4.452;2024-02-04T09:44:27;8.27;;;2.90;;
24685;SDS011;12804;51.176;4.452;2024-02-04T09:46:53;6.35;;;2.80;;
24685;SDS011;12804;51.176;4.452;2024-02-04T09:49:19;9.30;;;3.10;;
24685;SDS011;12804;51.176;4.452;2024-02-04T09:51:46;4.90;;;2.53;;
24685;SDS011;12804;51.176;4.452;2024-02-04T09:54:13;7.15;;;2.80;;
24685;SDS011;12804;51.176;4.452;2024-02-04T09:56:41;6.97;;;2.67;;
24685;SDS011;12804;51.176;4.452;2024-02-04T09:59:08;8.00;;;3.28;;
24685;SDS011;12804;51.176;4.452;2024-02-04T10:01:33;7.28;;;2.88;;
24685;SDS011;12804;51.176;4.452;2024-02-04T10:04:01;7.35;;;3.53;;
24685;SDS011;12804;51.176;4.452;2024-02-04T10:06:27;8.98;;;3.17;;
24685;SDS011;12804;51.176;4.452;2024-02-04T10:08:53;8.15;;;3.30;;
24685;SDS011;12804;51.176;4.452;2024-02-04T10:11:19;7.35;;;3.08;;
24685;SDS011;12804;51.176;4.452;2024-02-04T10:13:45;7.55;;;3.22;;
24685;SDS011;12804;51.176;4.452;2024-02-04T10:16:13;7.25;;;3.35;;
24685;SDS011;12804;51.176;4.452;2024-02-04T10:18:43;8.13;;;3.05;;
24685;SDS011;12804;51.176;4.452;2024-02-04T10:23:48;6.72;;;2.85;;
24685;SDS011;12804;51.176;4.452;2024-02-04T10:26:14;4.45;;;2.60;;
24685;SDS011;12804;51.176;4.452;2024-02-04T10:28:41;7.95;;;2.70;;
24685;SDS011;12804;51.176;4.452;2024-02-04T10:31:10;5.80;;;2.58;;
24685;SDS011;12804;51.176;4.452;2024-02-04T10:33:36;5.90;;;2.53;;
24685;SDS011;12804;51.176;4.452;2024-02-04T10:36:05;4.03;;;2.30;;
24685;SDS011;12804;51.176;4.452;2024-02-04T10:38:32;4.28;;;1.98;;
24685;SDS011;12804;51.176;4.452;2024-02-04T10:41:01;4.78;;;1.73;;
24685;SDS011;12804;51.176;4.452;2024-02-04T10:43:33;5.38;;;2.15;;
24685;SDS011;12804;51.176;4.452;2024-02-04T10:46:09;5.28;;;1.83;;
24685;SDS011;12804;51.176;4.452;2024-02-04T10:48:42;4.55;;;1.75;;
24685;SDS011;12804;51.176;4.452;2024-02-04T10:51:13;4.30;;;1.60;;
24685;SDS011;12804;51.176;4.452;2024-02-04T10:53:43;5.28;;;1.77;;
24685;SDS011;12804;51.176;4.452;2024-02-04T10:56:18;5.63;;;1.63;;
24685;SDS011;12804;51.176;4.452;2024-02-04T10:58:47;4.35;;;1.58;;
24685;SDS011;12804;51.176;4.452;2024-02-04T11:01:14;3.97;;;1.65;;
24685;SDS011;12804;51.176;4.452;2024-02-04T11:03:41;4.78;;;1.88;;
24685;SDS011;12804;51.176;4.452;2024-02-04T11:06:08;7.78;;;1.50;;
24685;SDS011;12804;51.176;4.452;2024-02-04T11:08:37;5.50;;;1.63;;
24685;SDS011;12804;51.176;4.452;2024-02-04T11:11:04;5.78;;;1.67;;
24685;SDS011;12804;51.176;4.452;2024-02-04T11:13:30;4.20;;;1.85;;
24685;SDS011;12804;51.176;4.452;2024-02-04T11:15:58;7.97;;;2.35;;
24685;SDS011;12804;51.176;4.452;2024-02-04T11:21:43;5.05;;;2.00;;
24685;SDS011;12804;51.176;4.452;2024-02-04T11:27:02;6.15;;;2.40;;
24685;SDS011;12804;51.176;4.452;2024-02-04T11:29:28;4.57;;;2.22;;
24685;SDS011;12804;51.176;4.452;2024-02-04T11:31:54;4.93;;;2.17;;
24685;SDS011;12804;51.176;4.452;2024-02-04T11:34:20;7.45;;;2.70;;
24685;SDS011;12804;51.176;4.452;2024-02-04T11:36:45;6.45;;;2.22;;
24685;SDS011;12804;51.176;4.452;2024-02-04T11:39:12;6.22;;;2.03;;
24685;SDS011;12804;51.176;4.452;2024-02-04T11:41:44;6.38;;;2.50;;
24685;SDS011;12804;51.176;4.452;2024-02-04T11:44:12;5.10;;;2.05;;
24685;SDS011;12804;51.176;4.452;2024-02-04T11:46:38;5.10;;;2.25;;
24685;SDS011;12804;51.176;4.452;2024-02-04T11:51:46;4.13;;;2.15;;
24685;SDS011;12804;51.176;4.452;2024-02-04T11:54:16;4.78;;;2.53;;
24685;SDS011;12804;51.176;4.452;2024-02-04T11:56:45;5.80;;;1.95;;
24685;SDS011;12804;51.176;4.452;2024-02-04T11:59:11;6.65;;;2.30;;
24685;SDS011;12804;51.176;4.452;2024-02-04T12:01:39;4.43;;;2.25;;
24685;SDS011;12804;51.176;4.452;2024-02-04T12:04:09;5.72;;;2.05;;
24685;SDS011;12804;51.176;4.452;2024-02-04T12:06:42;3.17;;;1.77;;
24685;SDS011;12804;51.176;4.452;2024-02-04T12:09:08;7.70;;;2.33;;
24685;SDS011;12804;51.176;4.452;2024-02-04T12:11:39;4.03;;;1.75;;
24685;SDS011;12804;51.176;4.452;2024-02-04T12:14:04;4.18;;;1.95;;
24685;SDS011;12804;51.176;4.452;2024-02-04T12:16:32;6.47;;;2.63;;
24685;SDS011;12804;51.176;4.452;2024-02-04T12:19:00;4.13;;;2.20;;
24685;SDS011;12804;51.176;4.452;2024-02-04T12:21:29;4.72;;;2.30;;
24685;SDS011;12804;51.176;4.452;2024-02-04T12:23:55;6.47;;;2.20;;
24685;SDS011;12804;51.176;4.452;2024-02-04T12:26:22;3.20;;;1.85;;
24685;SDS011;12804;51.176;4.452;2024-02-04T12:28:48;5.18;;;2.30;;
24685;SDS011;12804;51.176;4.452;2024-02-04T12:31:19;5.25;;;1.83;;
24685;SDS011;12804;51.176;4.452;2024-02-04T12:33:52;5.25;;;1.55;;
24685;SDS011;12804;51.176;4.452;2024-02-04T12:36:19;5.00;;;1.80;;
24685;SDS011;12804;51.176;4.452;2024-02-04T12:38:52;4.78;;;1.65;;
24685;SDS011;12804;51.176;4.452;2024-02-04T12:41:20;6.13;;;1.88;;
24685;SDS011;12804;51.176;4.452;2024-02-04T12:43:49;3.63;;;1.63;;
24685;SDS011;12804;51.176;4.452;2024-02-04T12:46:16;4.55;;;1.40;;
24685;SDS011;12804;51.176;4.452;2024-02-04T12:48:42;3.60;;;1.30;;
24685;SDS011;12804;51.176;4.452;2024-02-04T12:51:08;4.15;;;1.33;;
24685;SDS011;12804;51.176;4.452;2024-02-04T12:53:36;5.03;;;1.50;;
24685;SDS011;12804;51.176;4.452;2024-02-04T12:56:03;3.40;;;1.17;;
24685;SDS011;12804;51.176;4.452;2024-02-04T12:58:29;4.20;;;1.42;;
24685;SDS011;12804;51.176;4.452;2024-02-04T13:01:01;5.80;;;1.63;;
24685;SDS011;12804;51.176;4.452;2024-02-04T13:03:28;3.67;;;1.42;;
24685;SDS011;12804;51.176;4.452;2024-02-04T13:05:57;3.67;;;1.10;;
24685;SDS011;12804;51.176;4.452;2024-02-04T13:08:24;4.78;;;1.08;;
24685;SDS011;12804;51.176;4.452;2024-02-04T13:10:53;6.38;;;1.33;;
24685;SDS011;12804;51.176;4.452;2024-02-04T13:13:22;4.88;;;1.15;;
24685;SDS011;12804;51.176;4.452;2024-02-04T13:15:52;4.13;;;1.20;;
24685;SDS011;12804;51.176;4.452;2024-02-04T13:18:18;2.42;;;1.00;;
24685;SDS011;12804;51.176;4.452;2024-02-04T13:20:44;6.78;;;1.35;;
24685;SDS011;12804;51.176;4.452;2024-02-04T13:23:11;3.63;;;1.20;;
24685;SDS011;12804;51.176;4.452;2024-02-04T13:25:37;2.90;;;1.48;;
24685;SDS011;12804;51.176;4.452;2024-02-04T13:28:03;5.30;;;1.30;;
24685;SDS011;12804;51.176;4.452;2024-02-04T13:30:29;6.05;;;1.88;;
24685;SDS011;12804;51.176;4.452;2024-02-04T13:32:56;6.07;;;1.50;;
24685;SDS011;12804;51.176;4.452;2024-02-04T13:35:27;2.70;;;1.50;;
24685;SDS011;12804;51.176;4.452;2024-02-04T13:37:52;3.40;;;1.50;;
24685;SDS011;12804;51.176;4.452;2024-02-04T13:40:21;5.60;;;1.50;;
24685;SDS011;12804;51.176;4.452;2024-02-04T13:42:49;5.82;;;1.52;;
24685;SDS011;12804;51.176;4.452;2024-02-04T13:45:15;4.82;;;1.30;;
24685;SDS011;12804;51.176;4.452;2024-02-04T13:47:44;3.25;;;1.20;;
24685;SDS011;12804;51.176;4.452;2024-02-04T13:50:10;2.10;;;1.25;;
24685;SDS011;12804;51.176;4.452;2024-02-04T13:52:36;6.38;;;1.73;;
24685;SDS011;12804;51.176;4.452;2024-02-04T13:55:03;5.60;;;1.52;;
24685;SDS011;12804;51.176;4.452;2024-02-04T13:57:35;5.78;;;1.77;;
24685;SDS011;12804;51.176;4.452;2024-02-04T14:00:02;4.85;;;1.38;;
24685;SDS011;12804;51.176;4.452;2024-02-04T14:02:30;4.25;;;1.40;;
24685;SDS011;12804;51.176;4.452;2024-02-04T14:04:56;5.40;;;1.55;;
24685;SDS011;12804;51.176;4.452;2024-02-04T14:07:22;4.10;;;1.40;;
24685;SDS011;12804;51.176;4.452;2024-02-04T14:09:48;5.75;;;1.38;;
24685;SDS011;12804;51.176;4.452;2024-02-04T14:12:13;5.43;;;1.50;;
24685;SDS011;12804;51.176;4.452;2024-02-04T14:14:39;2.65;;;1.50;;
24685;SDS011;12804;51.176;4.452;2024-02-04T14:17:05;5.68;;;1.42;;
24685;SDS011;12804;51.176;4.452;2024-02-04T14:19:31;6.45;;;1.92;;
24685;SDS011;12804;51.176;4.452;2024-02-04T14:21:57;4.35;;;1.60;;
24685;SDS011;12804;51.176;4.452;2024-02-04T14:24:22;5.28;;;1.60;;
24685;SDS011;12804;51.176;4.452;2024-02-04T14:26:48;8.48;;;1.70;;
24685;SDS011;12804;51.176;4.452;2024-02-04T14:29:21;6.97;;;1.77;;
24685;SDS011;12804;51.176;4.452;2024-02-04T14:31:46;4.47;;;1.27;;
24685;SDS011;12804;51.176;4.452;2024-02-04T14:34:12;4.18;;;1.60;;
24685;SDS011;12804;51.176;4.452;2024-02-04T14:36:38;2.42;;;1.35;;
24685;SDS011;12804;51.176;4.452;2024-02-04T14:39:04;7.10;;;1.52;;
24685;SDS011;12804;51.176;4.452;2024-02-04T14:41:31;4.20;;;1.35;;
24685;SDS011;12804;51.176;4.452;2024-02-04T14:43:59;4.82;;;1.67;;
24685;SDS011;12804;51.176;4.452;2024-02-04T14:46:25;6.85;;;1.63;;
24685;SDS011;12804;51.176;4.452;2024-02-04T14:48:51;6.43;;;1.80;;